Time;durP1;ratioP1;P1;durP2;ratioP2;P2;SDS_P1;SDS_P2;PMS_P1;PMS_P2;Temp;Humidity;BMP_temperature;BMP_pressure;BME280_temperature;BME280_humidity;BME280_pressure;Samples;Min_cycle;Max_cycle;Signal;HPM_P1;HPM_P2
2021/09/28 00:00:44;;;;;;;7.00;6.40;;;;;;;12.69;63.16;101077.68;111509;1192;94978;-76
2021/09/28 00:03:12;;;;;;;0.40;0.30;;;;;;;12.66;63.22;101075.96;111498;1192;139743;-76
2021/09/28 00:05:38;;;;;;;0.40;0.30;;;;;;;12.63;63.14;101077.83;111402;1193;95506;-76
2021/09/28 00:08:05;;;;;;;0.40;0.30;;;;;;;12.53;63.37;101081.82;111530;1192;95356;-76
2021/09/28 00:10:35;;;;;;;0.40;0.30;;;;;;;12.49;63.38;101081.54;111289;1193;139948;-78
2021/09/28 00:13:06;;;;;;;0.40;0.30;;;;;;;12.49;63.43;101083.32;111491;1193;94899;-77
2021/09/28 00:15:33;;;;;;;0.40;0.30;;;;;;;12.42;63.49;101082.40;112750;1192;138733;-76
2021/09/28 00:18:00;;;;;;;0.40;0.30;;;;;;;12.40;63.59;101081.05;112883;1192;94899;-76
2021/09/28 00:20:29;;;;;;;0.40;0.30;;;;;;;12.33;63.78;101082.61;112021;1192;139834;-76
2021/09/28 00:22:56;;;;;;;0.40;0.30;;;;;;;12.33;63.91;101085.66;111754;1192;95431;-78
2021/09/28 00:25:23;;;;;;;0.40;0.30;;;;;;;12.32;63.84;101084.77;111482;1192;94840;-76
2021/09/28 00:27:50;;;;;;;0.40;0.30;;;;;;;12.27;63.91;101089.16;111410;1192;139583;-76
2021/09/28 00:30:17;;;;;;;0.40;0.30;;;;;;;12.28;64.04;101085.58;111521;1193;94877;-76
2021/09/28 00:32:43;;;;;;;0.40;0.40;;;;;;;12.34;63.84;101082.59;111462;1193;143624;-76
2021/09/28 00:35:10;;;;;;;0.40;0.30;;;;;;;12.38;63.69;101078.05;111747;1192;94907;-76
2021/09/28 00:37:37;;;;;;;0.40;0.20;;;;;;;12.38;63.51;101080.02;111696;1193;108119;-76
2021/09/28 00:40:04;;;;;;;0.60;0.60;;;;;;;12.34;63.74;101082.94;111733;1192;139214;-76
2021/09/28 00:42:31;;;;;;;0.40;0.30;;;;;;;12.26;63.83;101089.89;112206;1193;94992;-76
2021/09/28 00:44:58;;;;;;;0.70;0.70;;;;;;;12.21;64.03;101088.38;111392;1193;139516;-76
2021/09/28 00:47:24;;;;;;;0.40;0.30;;;;;;;12.18;63.99;101089.17;111602;1192;95439;-77
2021/09/28 00:49:51;;;;;;;1.90;1.80;;;;;;;12.11;64.20;101086.48;111533;1193;94925;-75
2021/09/28 00:52:20;;;;;;;0.40;0.30;;;;;;;12.03;64.44;101089.68;111337;1193;139900;-77
2021/09/28 00:54:48;;;;;;;0.40;0.30;;;;;;;12.01;64.46;101087.23;111628;1192;95239;-78
2021/09/28 00:57:15;;;;;;;0.40;0.30;;;;;;;12.14;64.25;101085.00;111367;1193;140129;-77
2021/09/28 00:59:43;;;;;;;0.40;0.30;;;;;;;12.26;64.09;101082.95;112304;1192;94909;-77
2021/09/28 01:02:11;;;;;;;0.40;0.30;;;;;;;12.23;64.05;101083.02;112067;1192;110003;-77
2021/09/28 01:04:38;;;;;;;0.40;0.30;;;;;;;12.10;64.02;101083.65;112858;1192;138950;-77
2021/09/28 01:07:06;;;;;;;0.40;0.30;;;;;;;12.10;64.37;101080.11;111466;1193;94951;-77
2021/09/28 01:09:34;;;;;;;0.40;0.30;;;;;;;12.14;64.25;101078.41;111424;1192;139479;-77
2021/09/28 01:12:01;;;;;;;0.50;0.50;;;;;;;12.09;64.15;101075.13;111348;1192;110020;-77
2021/09/28 01:14:29;;;;;;;0.40;0.30;;;;;;;11.98;64.44;101071.63;111430;1192;138654;-77
2021/09/28 01:16:56;;;;;;;0.40;0.30;;;;;;;11.95;64.68;101073.82;111480;1192;94875;-77
2021/09/28 01:19:22;;;;;;;0.40;0.30;;;;;;;11.95;64.46;101073.10;111374;1193;94920;-77
2021/09/28 01:21:50;;;;;;;0.40;0.30;;;;;;;11.84;64.68;101066.73;111352;1192;137917;-77
2021/09/28 01:24:17;;;;;;;0.40;0.30;;;;;;;11.85;64.71;101064.94;111405;1193;95347;-77
2021/09/28 01:26:43;;;;;;;0.50;0.40;;;;;;;11.85;64.83;101065.11;111330;1192;138155;-77
2021/09/28 01:29:10;;;;;;;0.40;0.30;;;;;;;11.88;64.77;101066.12;111348;1193;95030;-77
2021/09/28 01:31:41;;;;;;;0.40;0.30;;;;;;;11.94;64.58;101062.62;111495;1192;94904;-77
2021/09/28 01:34:08;;;;;;;0.40;0.30;;;;;;;11.92;64.45;101064.43;111561;1192;139750;-77
2021/09/28 01:36:36;;;;;;;0.40;0.40;;;;;;;11.86;64.57;101062.42;111474;1193;94903;-77
2021/09/28 01:39:05;;;;;;;0.40;0.30;;;;;;;11.87;64.65;101068.10;111483;1192;140028;-77
2021/09/28 01:41:32;;;;;;;0.80;0.80;;;;;;;11.81;64.56;101066.80;111589;1192;95565;-77
2021/09/28 01:44:17;;;;;;;11.60;10.90;;;;;;;11.65;64.92;101070.31;111545;1192;95169;-77
2021/09/28 01:46:45;;;;;;;0.40;0.40;;;;;;;11.64;65.10;101065.71;111197;1194;138188;-77
2021/09/28 01:49:14;;;;;;;0.40;0.30;;;;;;;11.66;65.00;101065.48;114358;1192;94046;-78
2021/09/28 01:51:41;;;;;;;0.40;0.30;;;;;;;11.64;65.11;101069.45;111440;1192;138287;-77
2021/09/28 01:54:08;;;;;;;0.40;0.30;;;;;;;11.67;64.93;101064.58;111557;1192;95359;-77
2021/09/28 01:56:36;;;;;;;0.40;0.30;;;;;;;11.65;64.90;101065.52;111422;1192;139206;-78
2021/09/28 01:59:04;;;;;;;0.40;0.30;;;;;;;11.63;65.01;101061.27;111832;1192;95029;-78
2021/09/28 02:01:31;;;;;;;0.40;0.30;;;;;;;11.62;65.03;101062.20;111568;1192;109365;-77
2021/09/28 02:03:59;;;;;;;0.40;0.30;;;;;;;11.59;65.15;101060.29;111868;1192;140287;-77
2021/09/28 02:06:27;;;;;;;0.40;0.30;;;;;;;11.59;65.02;101059.24;111639;1192;94859;-77
2021/09/28 02:08:54;;;;;;;0.40;0.30;;;;;;;11.61;65.02;101056.16;111386;1193;138207;-77
2021/09/28 02:11:20;;;;;;;175.20;167.50;;;;;;;11.50;65.13;101058.70;111626;1192;95283;-78
2021/09/28 02:13:49;;;;;;;0.50;0.40;;;;;;;11.37;65.45;101061.61;111580;1192;94906;-78
2021/09/28 02:16:19;;;;;;;0.50;0.40;;;;;;;11.34;65.49;101057.73;113341;1192;138840;-78
2021/09/28 02:18:46;;;;;;;0.40;0.30;;;;;;;11.36;65.64;101060.20;111733;1192;95855;-77
2021/09/28 02:21:12;;;;;;;0.40;0.40;;;;;;;11.38;65.65;101064.79;111549;1193;139084;-76
2021/09/28 02:23:39;;;;;;;0.40;0.40;;;;;;;11.32;65.67;101064.73;111635;1192;94913;-76
2021/09/28 02:26:07;;;;;;;0.50;0.40;;;;;;;11.29;65.73;101066.03;111584;1192;94899;-77
2021/09/28 02:28:33;;;;;;;0.40;0.30;;;;;;;11.25;65.81;101066.64;111365;1193;139072;-76
2021/09/28 02:31:00;;;;;;;1.20;1.10;;;;;;;11.22;65.97;101063.32;111551;1193;95344;-77
2021/09/28 02:33:27;;;;;;;2.00;1.90;;;;;;;11.14;66.14;101059.02;111343;1192;138591;-77
2021/09/28 02:35:54;;;;;;;0.50;0.50;;;;;;;11.10;66.34;101057.48;111532;1192;95595;-77
2021/09/28 02:38:20;;;;;;;0.40;0.30;;;;;;;11.13;66.18;101057.96;111691;1192;97443;-78
2021/09/28 02:40:47;;;;;;;0.40;0.30;;;;;;;11.10;66.13;101050.38;112090;1192;138936;-77
2021/09/28 02:43:14;;;;;;;0.40;0.30;;;;;;;11.17;65.91;101054.51;111712;1192;95431;-77
2021/09/28 02:45:45;;;;;;;0.40;0.30;;;;;;;11.15;65.85;101057.04;111626;1192;136895;-78
2021/09/28 02:48:11;;;;;;;0.40;0.30;;;;;;;11.10;66.04;101059.79;111665;1192;110210;-78
2021/09/28 02:50:38;;;;;;;0.40;0.30;;;;;;;11.16;65.75;101063.23;111573;1192;138804;-78
2021/09/28 02:53:04;;;;;;;0.40;0.30;;;;;;;11.20;65.70;101063.52;111624;1193;95223;-79
2021/09/28 02:55:31;;;;;;;0.40;0.30;;;;;;;11.21;65.76;101065.45;111570;1194;95457;-78
2021/09/28 02:57:58;;;;;;;0.40;0.30;;;;;;;11.19;65.69;101066.03;111546;1196;138928;-78
2021/09/28 03:00:24;;;;;;;0.40;0.30;;;;;;;11.22;65.53;101060.99;111729;1192;109860;-78
2021/09/28 03:02:51;;;;;;;0.40;0.30;;;;;;;11.27;65.37;101063.94;111807;1192;138344;-78
2021/09/28 03:05:18;;;;;;;0.40;0.30;;;;;;;11.34;65.19;101063.27;112707;1192;95134;-78
2021/09/28 03:07:44;;;;;;;0.50;0.50;;;;;;;11.29;65.13;101060.51;112642;1193;95281;-77
2021/09/28 03:10:11;;;;;;;0.40;0.30;;;;;;;11.28;65.03;101061.42;112174;1193;138531;-80
2021/09/28 03:12:38;;;;;;;0.40;0.30;;;;;;;11.31;65.13;101060.85;111804;1193;108889;-78
2021/09/28 03:15:06;;;;;;;0.40;0.30;;;;;;;11.32;65.08;101060.83;111733;1192;139749;-78
2021/09/28 03:17:32;;;;;;;0.40;0.30;;;;;;;11.26;65.14;101058.61;111888;1192;94944;-79
2021/09/28 03:20:00;;;;;;;0.40;0.30;;;;;;;11.23;65.26;101059.56;112129;1192;94903;-77
2021/09/28 03:22:26;;;;;;;0.40;0.30;;;;;;;11.24;65.21;101057.05;112044;1192;140855;-78
2021/09/28 03:24:53;;;;;;;0.40;0.30;;;;;;;11.23;65.16;101057.98;112204;1192;94979;-77
2021/09/28 03:27:19;;;;;;;0.40;0.30;;;;;;;11.28;65.07;101058.06;112521;1192;138723;-79
2021/09/28 03:29:46;;;;;;;0.40;0.30;;;;;;;11.29;65.10;101058.76;112413;1192;95712;-77
2021/09/28 03:32:13;;;;;;;0.40;0.30;;;;;;;11.33;64.79;101059.20;111687;1193;95354;-78
2021/09/28 03:34:39;;;;;;;0.40;0.30;;;;;;;11.24;64.89;101060.63;111516;1193;138082;-77
2021/09/28 03:37:06;;;;;;;0.40;0.30;;;;;;;11.18;65.27;101062.15;111522;1193;94925;-78
2021/09/28 03:39:32;;;;;;;0.40;0.30;;;;;;;11.15;65.21;101061.65;111830;1192;141754;-77
2021/09/28 03:41:59;;;;;;;0.40;0.30;;;;;;;11.10;65.24;101061.41;111921;1192;94899;-77
2021/09/28 03:44:26;;;;;;;0.40;0.30;;;;;;;11.01;65.47;101057.46;111625;1193;95254;-77
2021/09/28 03:46:53;;;;;;;0.40;0.30;;;;;;;10.99;65.59;101056.61;111529;1192;139662;-77
2021/09/28 03:49:20;;;;;;;0.40;0.30;;;;;;;11.00;65.59;101053.56;111662;1192;96192;-77
2021/09/28 03:51:46;;;;;;;0.40;0.30;;;;;;;10.98;65.58;101053.42;111569;1192;138970;-77
2021/09/28 03:54:13;;;;;;;0.40;0.30;;;;;;;11.00;65.50;101053.04;111663;1192;94919;-77
2021/09/28 03:56:40;;;;;;;0.40;0.30;;;;;;;10.97;65.49;101053.97;111406;1194;140414;-79
2021/09/28 03:59:06;;;;;;;0.40;0.30;;;;;;;10.94;65.62;101052.98;111685;1192;95228;-77
2021/09/28 04:01:34;;;;;;;0.40;0.30;;;;;;;10.92;65.63;101054.44;111589;1194;94998;-77
2021/09/28 04:04:01;;;;;;;0.40;0.30;;;;;;;10.84;65.69;101053.67;111726;1192;138822;-78
2021/09/28 04:06:27;;;;;;;0.40;0.30;;;;;;;10.82;65.85;101055.12;111735;1192;95308;-78
2021/09/28 04:08:54;;;;;;;0.40;0.30;;;;;;;10.75;65.93;101059.14;111643;1192;138419;-77
2021/09/28 04:11:20;;;;;;;0.40;0.30;;;;;;;10.76;66.06;101059.66;111806;1192;109886;-78
2021/09/28 04:13:48;;;;;;;0.40;0.30;;;;;;;10.72;66.00;101061.50;111836;1192;95073;-78
2021/09/28 04:16:19;;;;;;;0.40;0.30;;;;;;;10.66;66.15;101061.78;111751;1192;139083;-77
2021/09/28 04:18:46;;;;;;;0.40;0.30;;;;;;;10.67;66.30;101065.32;111831;1192;109296;-77
2021/09/28 04:21:13;;;;;;;0.40;0.40;;;;;;;10.67;66.17;101066.73;111366;1193;139738;-77
2021/09/28 04:23:40;;;;;;;0.40;0.40;;;;;;;10.66;66.25;101067.27;111957;1193;95425;-78
2021/09/28 04:26:07;;;;;;;0.40;0.30;;;;;;;10.76;66.10;101074.41;111590;1193;95674;-77
2021/09/28 04:28:35;;;;;;;0.40;0.30;;;;;;;10.76;65.81;101074.77;111678;1195;139341;-77
2021/09/28 04:31:02;;;;;;;0.40;0.30;;;;;;;10.70;66.09;101071.30;112364;1193;94943;-79
2021/09/28 04:33:29;;;;;;;0.40;0.30;;;;;;;10.68;66.05;101076.13;111685;1192;139865;-77
2021/09/28 04:35:56;;;;;;;0.40;0.30;;;;;;;10.65;66.01;101075.65;111778;1192;95464;-77
2021/09/28 04:38:22;;;;;;;0.50;0.40;;;;;;;10.62;66.18;101074.45;111677;1193;95365;-77
2021/09/28 04:40:49;;;;;;;0.40;0.30;;;;;;;10.68;66.22;101072.76;111592;1192;138672;-78
2021/09/28 04:43:15;;;;;;;0.40;0.30;;;;;;;10.84;65.92;101077.83;111604;1192;94928;-77
2021/09/28 04:45:42;;;;;;;0.40;0.30;;;;;;;10.86;65.47;101083.30;111499;1192;139320;-77
2021/09/28 04:48:09;;;;;;;0.40;0.30;;;;;;;10.78;65.54;101086.27;111691;1193;95950;-77
2021/09/28 04:50:35;;;;;;;0.40;0.30;;;;;;;10.70;65.85;101090.84;111621;1192;138030;-78
2021/09/28 04:53:02;;;;;;;0.40;0.30;;;;;;;10.63;65.92;101092.19;111676;1192;109297;-78
2021/09/28 04:55:29;;;;;;;0.40;0.30;;;;;;;10.69;65.82;101095.46;111645;1192;94912;-77
2021/09/28 04:57:55;;;;;;;0.40;0.30;;;;;;;10.78;65.71;101098.17;111678;1193;137652;-78
2021/09/28 05:00:22;;;;;;;0.50;0.50;;;;;;;10.74;65.68;101099.83;111648;1192;95429;-77
2021/09/28 05:02:49;;;;;;;0.40;0.30;;;;;;;10.66;65.77;101103.86;111782;1192;139626;-78
2021/09/28 05:05:16;;;;;;;0.40;0.30;;;;;;;10.68;65.85;101107.92;111777;1192;109122;-79
2021/09/28 05:07:42;;;;;;;0.40;0.30;;;;;;;10.73;65.84;101109.27;111778;1192;94871;-77
2021/09/28 05:10:09;;;;;;;0.40;0.40;;;;;;;10.75;65.71;101109.41;111543;1193;139494;-79
2021/09/28 05:12:36;;;;;;;0.40;0.30;;;;;;;10.75;65.72;101106.75;111443;1193;94993;-77
2021/09/28 05:15:04;;;;;;;0.40;0.30;;;;;;;10.83;65.48;101110.19;111604;1193;139675;-77
2021/09/28 05:17:31;;;;;;;0.40;0.30;;;;;;;10.78;65.59;101111.15;111614;1193;108965;-77
2021/09/28 05:19:57;;;;;;;0.40;0.40;;;;;;;10.78;65.53;101113.46;111518;1194;95347;-77
2021/09/28 05:22:24;;;;;;;0.40;0.30;;;;;;;10.74;65.52;101114.58;111877;1193;138270;-79
2021/09/28 05:24:50;;;;;;;0.40;0.30;;;;;;;10.70;65.59;101118.36;112286;1192;94866;-79
2021/09/28 05:27:17;;;;;;;0.40;0.40;;;;;;;10.68;65.60;101120.00;111738;1192;139790;-78
2021/09/28 05:29:44;;;;;;;0.40;0.30;;;;;;;10.66;65.82;101124.46;111498;1193;107622;-77
2021/09/28 05:32:10;;;;;;;0.40;0.30;;;;;;;10.60;65.75;101129.18;111406;1193;95048;-77
2021/09/28 05:34:37;;;;;;;0.40;0.30;;;;;;;10.65;65.80;101133.36;111822;1193;137852;-78
2021/09/28 05:37:04;;;;;;;0.40;0.30;;;;;;;10.69;65.61;101129.73;111992;1193;96027;-78
2021/09/28 05:39:31;;;;;;;0.40;0.30;;;;;;;10.71;65.51;101137.00;111753;1193;137665;-78
2021/09/28 05:41:57;;;;;;;0.40;0.30;;;;;;;10.67;65.78;101137.40;111744;1193;94897;-77
2021/09/28 05:44:24;;;;;;;0.40;0.40;;;;;;;10.68;65.64;101142.02;111720;1193;109883;-78
2021/09/28 05:46:51;;;;;;;0.40;0.30;;;;;;;10.75;65.56;101143.52;111670;1192;139753;-78
2021/09/28 05:49:17;;;;;;;0.40;0.30;;;;;;;10.78;65.55;101149.88;111628;1192;95073;-79
2021/09/28 05:51:53;;;;;;;0.40;0.30;;;;;;;10.76;65.39;101150.25;111390;1193;137683;-78
2021/09/28 05:54:21;;;;;;;0.50;0.50;;;;;;;10.80;65.57;101155.87;111501;1193;110111;-78
2021/09/28 05:56:50;;;;;;;0.40;0.30;;;;;;;10.84;65.05;101160.42;113595;1193;138734;-77
2021/09/28 05:59:17;;;;;;;0.40;0.30;;;;;;;10.91;65.36;101161.57;114105;1192;94180;-80
2021/09/28 06:01:44;;;;;;;0.40;0.30;;;;;;;10.96;64.70;101168.43;111875;1192;95209;-79
2021/09/28 06:04:12;;;;;;;0.40;0.40;;;;;;;10.97;64.87;101169.83;111807;1193;139924;-78
2021/09/28 06:06:38;;;;;;;0.40;0.40;;;;;;;10.97;64.81;101173.38;111493;1193;95443;-77
2021/09/28 06:09:05;;;;;;;0.40;0.30;;;;;;;11.03;64.78;101172.94;111494;1193;139267;-77
2021/09/28 06:11:32;;;;;;;0.40;0.30;;;;;;;11.09;64.58;101177.10;111600;1193;94921;-77
2021/09/28 06:13:58;;;;;;;0.40;0.30;;;;;;;11.15;64.65;101183.75;111620;1193;94907;-77
2021/09/28 06:16:25;;;;;;;0.40;0.30;;;;;;;11.28;64.50;101190.48;111486;1193;138868;-77
2021/09/28 06:18:52;;;;;;;0.40;0.30;;;;;;;11.39;64.10;101194.02;111632;1193;95440;-78
2021/09/28 06:21:18;;;;;;;0.40;0.30;;;;;;;11.44;63.81;101197.34;111785;1193;138547;-79
2021/09/28 06:23:45;;;;;;;0.40;0.30;;;;;;;11.44;63.28;101200.16;111684;1193;95806;-79
2021/09/28 06:26:11;;;;;;;0.40;0.30;;;;;;;11.43;63.40;101201.61;111752;1193;95508;-77
2021/09/28 06:28:38;;;;;;;0.40;0.30;;;;;;;11.45;63.31;101201.94;111501;1192;139520;-78
2021/09/28 06:31:05;;;;;;;0.40;0.30;;;;;;;11.55;63.12;101203.02;111590;1193;94827;-79
2021/09/28 06:33:31;;;;;;;0.40;0.30;;;;;;;11.58;62.71;101202.77;111506;1193;139941;-78
2021/09/28 06:35:58;;;;;;;0.40;0.30;;;;;;;11.59;62.71;101203.30;111617;1193;95136;-78
2021/09/28 06:38:25;;;;;;;0.40;0.30;;;;;;;11.65;62.90;101208.89;112153;1192;94894;-78
2021/09/28 06:40:51;;;;;;;0.40;0.30;;;;;;;11.72;62.06;101210.00;111636;1194;138253;-77
2021/09/28 06:43:18;;;;;;;0.40;0.30;;;;;;;11.69;61.55;101212.89;111920;1193;94928;-78
2021/09/28 06:45:45;;;;;;;0.40;0.30;;;;;;;11.70;62.12;101210.58;111548;1193;137703;-77
2021/09/28 06:48:12;;;;;;;0.40;0.30;;;;;;;11.80;62.14;101212.89;111717;1192;94921;-78
2021/09/28 06:50:38;;;;;;;0.40;0.30;;;;;;;11.81;61.69;101211.63;111988;1192;138640;-77
2021/09/28 06:53:05;;;;;;;0.50;0.40;;;;;;;11.89;61.82;101214.50;111965;1192;93888;-77
2021/09/28 06:55:32;;;;;;;0.40;0.30;;;;;;;11.96;61.11;101217.95;111717;1193;95437;-78
2021/09/28 06:57:58;;;;;;;0.40;0.30;;;;;;;12.02;60.70;101221.23;111560;1193;137868;-77
2021/09/28 07:00:25;;;;;;;0.40;0.30;;;;;;;12.07;61.10;101223.98;111745;1193;96196;-76
2021/09/28 07:02:52;;;;;;;0.40;0.30;;;;;;;12.15;61.00;101224.89;111786;1192;138524;-77
2021/09/28 07:05:20;;;;;;;0.40;0.30;;;;;;;12.26;61.05;101223.26;111674;1193;94896;-78
2021/09/28 07:07:46;;;;;;;0.40;0.20;;;;;;;12.36;60.03;101226.98;111834;1193;95352;-78
2021/09/28 07:10:13;;;;;;;0.40;0.30;;;;;;;12.45;60.06;101233.02;111872;1193;139900;-77
2021/09/28 07:12:44;;;;;;;0.40;0.30;;;;;;;12.55;60.41;101233.17;112028;1193;109169;-77
2021/09/28 07:15:11;;;;;;;0.40;0.30;;;;;;;12.68;60.27;101234.15;111805;1193;139111;-77
2021/09/28 07:17:37;;;;;;;0.40;0.30;;;;;;;12.74;59.71;101236.86;111906;1192;94845;-77
2021/09/28 07:20:05;;;;;;;0.40;0.30;;;;;;;12.77;59.25;101242.86;111771;1193;95341;-77
2021/09/28 07:22:32;;;;;;;0.40;0.30;;;;;;;12.85;59.27;101244.30;111712;1193;139844;-79
2021/09/28 07:24:59;;;;;;;0.40;0.20;;;;;;;12.89;58.57;101250.27;111645;1193;94903;-77
2021/09/28 07:27:46;;;;;;;0.40;0.20;;;;;;;12.91;58.13;101250.74;111570;1193;139069;-77
2021/09/28 07:30:13;;;;;;;0.40;0.20;;;;;;;12.93;57.99;101253.20;111860;1193;95267;-76
2021/09/28 07:32:40;;;;;;;0.40;0.30;;;;;;;12.92;57.50;101255.02;111582;1193;137884;-78
2021/09/28 07:35:08;;;;;;;0.40;0.20;;;;;;;12.96;57.88;101252.43;111648;1193;95266;-78
2021/09/28 07:37:34;;;;;;;0.40;0.30;;;;;;;13.00;58.31;101247.34;112081;1192;95036;-80
2021/09/28 07:40:02;;;;;;;0.40;0.20;;;;;;;13.14;58.06;101253.44;111797;1193;140866;-77
2021/09/28 07:42:30;;;;;;;0.40;0.30;;;;;;;13.24;56.75;101255.54;111909;1192;94844;-78
2021/09/28 07:45:00;;;;;;;0.40;0.20;;;;;;;13.29;56.79;101258.08;115073;1192;138869;-78
2021/09/28 07:47:27;;;;;;;0.40;0.20;;;;;;;13.32;56.51;101253.73;115049;1192;93806;-80
2021/09/28 07:49:53;;;;;;;0.40;0.30;;;;;;;13.44;57.56;101254.02;114946;1193;94066;-77
2021/09/28 07:52:25;;;;;;;0.40;0.20;;;;;;;13.59;56.88;101251.86;114959;1192;137767;-77
2021/09/28 07:54:51;;;;;;;0.40;0.30;;;;;;;13.61;55.40;101254.30;114892;1192;94373;-77
2021/09/28 07:57:18;;;;;;;0.40;0.20;;;;;;;13.61;55.94;101252.70;114936;1192;139098;-76
2021/09/28 07:59:45;;;;;;;0.40;0.20;;;;;;;13.70;56.28;101253.20;114821;1193;93116;-76
2021/09/28 08:02:11;;;;;;;0.40;0.30;;;;;;;13.78;55.23;101254.41;112011;1193;94894;-77
2021/09/28 08:04:38;;;;;;;0.40;0.20;;;;;;;13.86;55.61;101253.86;111671;1193;138018;-77
2021/09/28 08:07:12;;;;;;;0.40;0.30;;;;;;;13.93;55.60;101255.27;111701;1192;95449;-77
2021/09/28 08:09:40;;;;;;;0.40;0.20;;;;;;;14.05;55.26;101256.73;111790;1192;139417;-78
2021/09/28 08:12:08;;;;;;;0.40;0.20;;;;;;;14.12;55.06;101252.98;111874;1193;95424;-76
2021/09/28 08:14:35;;;;;;;0.40;0.20;;;;;;;14.23;55.72;101255.36;111718;1193;139721;-77
2021/09/28 08:17:02;;;;;;;0.40;0.20;;;;;;;14.33;55.86;101259.55;111920;1192;95563;-77
2021/09/28 08:19:28;;;;;;;0.40;0.20;;;;;;;14.41;54.65;101256.46;111639;1193;95414;-78
2021/09/28 08:21:55;;;;;;;0.40;0.20;;;;;;;14.44;54.09;101258.14;111637;1193;137795;-78
2021/09/28 08:24:21;;;;;;;0.40;0.20;;;;;;;14.49;54.86;101257.66;111755;1193;94925;-77
2021/09/28 08:29:34;;;;;;;0.40;0.20;;;;;;;14.75;54.70;101261.76;111658;1193;109980;-77
2021/09/28 08:32:02;;;;;;;0.40;0.20;;;;;;;14.85;54.76;101259.13;111891;1193;94876;-78
2021/09/28 08:34:29;;;;;;;0.40;0.20;;;;;;;14.96;54.12;101260.96;111572;1193;137733;-78
2021/09/28 08:36:56;;;;;;;0.40;0.20;;;;;;;15.01;53.45;101260.61;111817;1193;94879;-78
2021/09/28 08:39:22;;;;;;;0.40;0.20;;;;;;;15.14;53.65;101259.32;111642;1193;140060;-78
2021/09/28 08:41:51;;;;;;;0.40;0.20;;;;;;;15.22;53.07;101265.69;111942;1193;94934;-79
2021/09/28 08:44:18;;;;;;;0.40;0.20;;;;;;;15.18;51.61;101265.63;111890;1193;95528;-78
2021/09/28 08:46:48;;;;;;;0.40;0.20;;;;;;;15.16;52.28;101265.34;112598;1193;139450;-78
2021/09/28 08:49:18;;;;;;;0.40;0.20;;;;;;;15.56;52.94;101264.05;112224;1192;109932;-79
2021/09/28 08:51:47;;;;;;;0.40;0.20;;;;;;;15.93;52.19;101263.37;111530;1193;139961;-77
2021/09/28 08:54:14;;;;;;;0.40;0.20;;;;;;;16.06;50.96;101264.90;111708;1193;95351;-77
2021/09/28 08:56:41;;;;;;;0.40;0.20;;;;;;;16.14;49.86;101265.67;111430;1193;140395;-78
2021/09/28 08:59:08;;;;;;;0.40;0.20;;;;;;;16.29;50.66;101266.23;111755;1193;95448;-78
2021/09/28 09:01:36;;;;;;;0.40;0.20;;;;;;;16.57;50.68;101271.30;111952;1193;95190;-76
2021/09/28 09:04:21;;;;;;;0.40;0.20;;;;;;;16.60;48.57;101269.20;111856;1193;139844;-79
2021/09/28 09:06:48;;;;;;;0.40;0.20;;;;;;;16.58;47.94;101270.17;112129;1192;108911;-78
2021/09/28 09:09:24;;;;;;;0.40;0.20;;;;;;;16.59;47.73;101269.23;111671;1193;137846;-77
2021/09/28 09:11:51;;;;;;;0.40;0.20;;;;;;;16.69;47.49;101271.38;111881;1193;95968;-78
2021/09/28 09:14:22;;;;;;;0.40;0.10;;;;;;;16.75;47.70;101267.03;111899;1193;94964;-77
2021/09/28 09:16:53;;;;;;;0.40;0.10;;;;;;;16.95;47.89;101261.09;111873;1192;139551;-77
2021/09/28 09:19:29;;;;;;;0.40;0.20;;;;;;;16.99;46.99;101261.28;111766;1193;109690;-78
2021/09/28 09:21:58;;;;;;;0.40;0.20;;;;;;;17.05;47.29;101259.98;111902;1193;137088;-79
2021/09/28 09:24:49;;;;;;;0.40;0.10;;;;;;;17.21;47.05;101262.39;112274;1192;94900;-78
2021/09/28 09:27:19;;;;;;;0.40;0.20;;;;;;;17.33;46.40;101267.68;111771;1192;138036;-79
2021/09/28 09:30:22;;;;;;;0.40;0.10;;;;;;;17.53;47.18;101262.01;111519;1193;110051;-78
2021/09/28 09:32:59;;;;;;;0.40;0.20;;;;;;;17.76;46.55;101259.96;112295;1193;137981;-81
2021/09/28 09:35:34;;;;;;;0.40;0.20;;;;;;;17.90;46.74;101256.14;112629;1192;94440;-78
2021/09/28 09:38:05;;;;;;;0.40;0.10;;;;;;;18.42;45.45;101264.80;111862;1193;108004;-77
2021/09/28 09:40:38;;;;;;;0.40;0.20;;;;;;;19.06;43.17;101262.27;111788;1192;139068;-78
2021/09/28 09:43:06;;;;;;;0.40;0.10;;;;;;;19.62;41.03;101263.30;111651;1193;94937;-77
2021/09/28 09:45:33;;;;;;;0.40;0.10;;;;;;;19.97;40.26;101262.45;111978;1192;139441;-77
2021/09/28 09:47:59;;;;;;;0.40;0.10;;;;;;;20.36;39.62;101264.58;111876;1191;95003;-78
2021/09/28 09:50:27;;;;;;;0.40;0.20;;;;;;;21.08;39.51;101264.27;111763;1192;95023;-76
2021/09/28 09:52:57;;;;;;;0.40;0.10;;;;;;;21.67;36.42;101257.48;111667;1193;139668;-78
2021/09/28 09:55:27;;;;;;;0.40;0.10;;;;;;;22.23;36.05;101255.55;112062;1192;94946;-78
2021/09/28 09:57:55;;;;;;;0.40;0.10;;;;;;;22.43;35.11;101255.04;111814;1191;139533;-77
2021/09/28 10:00:22;;;;;;;0.40;0.10;;;;;;;22.81;34.35;101256.34;111883;1192;95003;-77
2021/09/28 10:02:49;;;;;;;0.40;0.10;;;;;;;23.34;33.45;101256.69;111971;1192;137938;-78
2021/09/28 10:05:17;;;;;;;0.40;0.00;;;;;;;23.45;32.82;101261.91;111890;1193;95414;-78
2021/09/28 10:07:48;;;;;;;0.40;0.10;;;;;;;23.54;32.57;101262.84;111715;1193;94888;-77
2021/09/28 10:10:15;;;;;;;0.40;0.00;;;;;;;23.93;32.12;101258.89;114881;1193;138329;-78
2021/09/28 10:12:42;;;;;;;0.40;0.00;;;;;;;24.58;31.11;101261.96;114790;1193;93705;-79
2021/09/28 10:15:13;;;;;;;0.40;0.00;;;;;;;25.22;30.59;101260.11;114766;1193;138352;-78
2021/09/28 10:17:41;;;;;;;0.40;0.00;;;;;;;25.68;29.64;101255.06;114581;1192;109121;-78
2021/09/28 10:20:31;;;;;;;0.40;0.00;;;;;;;26.08;28.78;101255.10;111679;1193;109794;-77
2021/09/28 10:23:14;;;;;;;0.40;0.00;;;;;;;26.80;27.91;101252.86;111486;1193;139926;-77
2021/09/28 10:25:44;;;;;;;0.40;0.00;;;;;;;27.02;27.36;101253.49;111930;1192;94913;-76
2021/09/28 10:28:11;;;;;;;0.40;0.00;;;;;;;26.70;27.25;101257.11;111643;1193;139557;-77
2021/09/28 10:30:42;;;;;;;0.40;0.00;;;;;;;25.85;29.04;101260.13;111907;1192;95328;-76
2021/09/28 10:33:13;;;;;;;0.40;0.00;;;;;;;25.34;28.84;101261.94;114939;1192;139050;-79
2021/09/28 10:36:00;;;;;;;0.40;0.00;;;;;;;24.59;30.66;101253.97;115074;1191;93650;-78
2021/09/28 10:38:58;;;;;;;0.40;0.00;;;;;;;23.71;32.03;101255.84;114990;1192;108930;-79
2021/09/28 10:41:33;;;;;;;0.40;0.00;;;;;;;23.08;33.74;101259.46;114252;1192;110517;-77
2021/09/28 10:44:40;;;;;;;0.40;0.00;;;;;;;22.58;34.67;101261.36;111626;1193;95327;-78
2021/09/28 10:47:08;;;;;;;0.40;0.00;;;;;;;21.67;34.80;101262.85;111504;1193;139121;-77
2021/09/28 10:49:37;;;;;;;0.40;0.00;;;;;;;21.12;36.27;101265.52;114239;1192;109292;-79
2021/09/28 10:52:22;;;;;;;0.40;0.10;;;;;;;20.78;37.04;101267.93;111544;1193;141073;-77
2021/09/28 10:55:12;;;;;;;0.40;0.00;;;;;;;20.28;37.36;101265.02;111585;1193;95607;-77
2021/09/28 10:57:54;;;;;;;0.40;0.10;;;;;;;19.88;39.23;101260.77;111545;1193;137967;-77
2021/09/28 11:00:26;;;;;;;0.40;0.10;;;;;;;19.64;39.71;101263.57;111624;1193;109678;-76
2021/09/28 11:02:59;;;;;;;0.40;0.10;;;;;;;19.25;39.94;101265.84;114525;1193;109962;-76
2021/09/28 11:05:30;;;;;;;0.40;0.10;;;;;;;19.01;41.49;101259.63;111491;1193;140220;-76
2021/09/28 11:07:57;;;;;;;0.40;0.10;;;;;;;18.99;41.46;101257.75;111832;1193;94815;-76
2021/09/28 11:10:24;;;;;;;0.40;0.10;;;;;;;18.84;41.81;101255.34;111752;1192;137712;-77
2021/09/28 11:12:51;;;;;;;0.40;0.10;;;;;;;18.79;41.63;101264.61;111529;1192;95324;-78
2021/09/28 11:15:20;;;;;;;0.40;0.10;;;;;;;18.55;41.27;101264.61;111474;1193;137638;-76
2021/09/28 11:17:47;;;;;;;0.40;0.10;;;;;;;18.31;41.72;101263.00;112814;1193;94929;-76
2021/09/28 11:20:30;;;;;;;0.40;0.10;;;;;;;18.24;42.26;101260.78;111670;1192;95481;-77